Mineral Point, Pennsylvania
Current Conditions -  °F | °C
As of 4:54 AM on Monday 22 Dec 2014 (Local Time) from KJST Reporting Station
Clear Clear  
Wind Chill: 23°   Ceiling: Unl
Heat Index: 23°   Visibility: 7mi
Dew Point: 19°   Wind: 3mph
Humidity: 85%   Direction: 170°S
Pressure: 30.1"   Gusts: NA
Location:  40.38°N, 78.84°W
Report Text: KJST 220954Z AUTO 17003KT 7SM CLR M05/M07 A3010 RMK AO2 SLP224 T10501072
Loading
Personal Weather Stations






























Interactive Weather Map New forecast layout! Learn more

10-Day Weather Forecast

Advertisements
Track Severe Weather on mobile